Time;durP1;ratioP1;P1;durP2;ratioP2;P2;SDS_P1;SDS_P2;PMS_P1;PMS_P2;Temp;Humidity;BMP_temperature;BMP_pressure;BME280_temperature;BME280_humidity;BME280_pressure;Samples;Min_cycle;Max_cycle;Signal;HPM_P1;HPM_P2
2022/11/21 00:02:08;;;;;;;3.87;3.77;;;21.50;61.40;;;;;;5069841;28;20464;-61
2022/11/21 00:04:35;;;;;;;4.03;3.93;;;21.50;61.50;;;;;;5071011;28;20524;-60
2022/11/21 00:07:02;;;;;;;3.97;3.87;;;21.50;61.60;;;;;;5068140;28;20467;-60
2022/11/21 00:09:32;;;;;;;4.20;4.10;;;21.40;61.70;;;;;;5053808;28;20527;-59
2022/11/21 00:11:59;;;;;;;4.13;4.03;;;21.40;61.80;;;;;;5054111;28;20455;-58
2022/11/21 00:14:26;;;;;;;4.10;3.97;;;21.40;62.80;;;;;;5054387;28;21046;-60
2022/11/21 00:16:53;;;;;;;4.10;4.00;;;21.30;62.00;;;;;;5054118;28;20432;-62
2022/11/21 00:19:19;;;;;;;4.63;4.43;;;21.30;62.10;;;;;;5054570;28;20451;-59
2022/11/21 00:21:46;;;;;;;4.20;4.00;;;21.30;62.20;;;;;;5041861;28;20467;-62
2022/11/21 00:24:13;;;;;;;4.37;4.17;;;21.30;62.40;;;;;;5034103;28;20457;-62
2022/11/21 00:26:41;;;;;;;4.03;3.83;;;21.30;62.60;;;;;;5034363;28;20484;-61
2022/11/21 00:29:08;;;;;;;4.40;4.23;;;21.30;62.70;;;;;;5034171;28;20448;-62
2022/11/21 00:31:35;;;;;;;4.63;4.40;;;21.30;62.70;;;;;;5033746;28;20883;-59
2022/11/21 00:34:02;;;;;;;3.67;3.67;;;21.30;62.70;;;;;;5049115;28;20553;-59
2022/11/21 00:36:29;;;;;;;4.40;4.20;;;21.30;62.80;;;;;;5053681;28;20444;-61
2022/11/21 00:38:56;;;;;;;4.10;4.00;;;21.30;62.90;;;;;;5053698;28;20440;-60
2022/11/21 00:41:22;;;;;;;4.60;4.40;;;21.30;62.90;;;;;;5053182;28;20965;-61
2022/11/21 00:43:51;;;;;;;4.27;3.97;;;21.20;62.90;;;;;;5053375;28;20546;-60
2022/11/21 00:46:17;;;;;;;3.80;3.70;;;21.20;63.00;;;;;;5053482;28;20570;-63
2022/11/21 00:48:44;;;;;;;4.67;4.37;;;21.20;63.00;;;;;;5053430;28;20448;-61
2022/11/21 00:51:11;;;;;;;4.27;4.10;;;21.20;63.20;;;;;;5052738;28;20444;-51
2022/11/21 00:53:38;;;;;;;3.60;3.50;;;21.20;63.30;;;;;;5053267;28;20531;-52
2022/11/21 00:56:05;;;;;;;4.37;4.07;;;21.20;63.40;;;;;;5053279;28;20453;-52
2022/11/21 00:58:32;;;;;;;4.10;3.90;;;21.20;63.60;;;;;;5053239;28;20475;-52
2022/11/21 01:01:05;;;;;;;4.87;4.67;;;21.20;63.80;;;;;;5053003;28;20531;-58
2022/11/21 01:03:33;;;;;;;4.03;3.93;;;21.10;63.80;;;;;;5052779;28;20512;-51
2022/11/21 01:06:01;;;;;;;4.37;4.23;;;21.10;63.90;;;;;;5053067;28;20487;-51
2022/11/21 01:08:28;;;;;;;4.07;3.87;;;21.10;63.80;;;;;;5053042;28;20440;-54
2022/11/21 01:10:55;;;;;;;4.77;4.53;;;21.10;63.90;;;;;;5052925;28;20476;-54
2022/11/21 01:13:22;;;;;;;4.20;4.10;;;21.10;63.90;;;;;;5052874;28;20936;-52
2022/11/21 01:15:49;;;;;;;4.97;4.80;;;21.10;64.00;;;;;;5052541;28;20576;-55
2022/11/21 01:18:17;;;;;;;4.83;4.63;;;21.10;64.10;;;;;;5052975;28;20535;-52
2022/11/21 01:20:44;;;;;;;4.30;4.17;;;21.10;64.20;;;;;;5052780;28;20444;-51
2022/11/21 01:23:11;;;;;;;4.20;4.10;;;21.10;64.30;;;;;;5052658;28;20446;-51
2022/11/21 01:25:38;;;;;;;4.10;3.90;;;21.10;64.50;;;;;;5052539;28;20484;-52
2022/11/21 01:28:05;;;;;;;4.00;3.80;;;21.10;64.70;;;;;;5052275;28;20452;-52
2022/11/21 01:30:31;;;;;;;5.00;4.80;;;21.10;64.60;;;;;;5052596;28;20531;-57
2022/11/21 01:32:58;;;;;;;4.33;4.13;;;21.10;64.70;;;;;;5052338;28;20450;-51
2022/11/21 01:35:26;;;;;;;4.80;4.63;;;21.00;64.70;;;;;;5052498;28;20492;-51
2022/11/21 01:37:53;;;;;;;4.17;4.07;;;21.00;64.60;;;;;;5052424;28;20527;-52
2022/11/21 01:40:20;;;;;;;4.37;4.27;;;21.00;64.70;;;;;;5052247;28;20483;-53
2022/11/21 01:42:54;;;;;;;4.33;4.20;;;21.00;64.80;;;;;;5052207;28;20444;-52
2022/11/21 01:45:51;;;;;;;4.63;4.50;;;21.00;64.90;;;;;;5051589;28;20490;-51
2022/11/21 01:48:18;;;;;;;4.00;3.87;;;21.00;65.10;;;;;;5052135;28;20484;-53
2022/11/21 01:50:46;;;;;;;4.43;4.20;;;21.00;65.20;;;;;;5052254;28;20480;-52
2022/11/21 01:53:13;;;;;;;4.20;4.00;;;21.00;65.20;;;;;;5051935;28;20874;-52
2022/11/21 01:55:40;;;;;;;4.60;4.40;;;21.00;65.10;;;;;;5052205;28;20482;-54
2022/11/21 01:58:06;;;;;;;4.93;4.73;;;21.00;65.10;;;;;;5051847;28;20531;-53
2022/11/21 02:00:39;;;;;;;4.50;4.30;;;21.00;65.10;;;;;;5052068;28;20827;-51
2022/11/21 02:03:10;;;;;;;4.50;4.33;;;21.00;65.10;;;;;;5051885;28;20467;-53
2022/11/21 02:05:38;;;;;;;4.83;4.63;;;21.00;65.10;;;;;;5051721;28;20523;-54
2022/11/21 02:08:11;;;;;;;4.80;4.60;;;21.00;65.10;;;;;;5051916;28;20543;-52
2022/11/21 02:10:43;;;;;;;4.43;4.30;;;21.00;65.10;;;;;;5051396;28;20531;-52
2022/11/21 02:13:10;;;;;;;4.20;4.10;;;21.00;65.20;;;;;;5051646;28;20484;-53
2022/11/21 02:15:37;;;;;;;5.20;4.90;;;21.00;65.20;;;;;;5051697;28;20503;-54
2022/11/21 02:18:08;;;;;;;4.60;4.40;;;21.00;65.30;;;;;;5051890;28;20530;-51
2022/11/21 02:20:37;;;;;;;4.50;4.40;;;20.90;65.30;;;;;;5051584;28;20528;-53
2022/11/21 02:23:15;;;;;;;5.00;4.80;;;20.90;65.30;;;;;;5051642;28;20551;-51
2022/11/21 02:25:44;;;;;;;4.90;4.70;;;20.90;65.40;;;;;;5051546;28;21041;-52
2022/11/21 02:28:14;;;;;;;4.40;4.13;;;20.90;65.30;;;;;;5051550;28;20534;-56
2022/11/21 02:30:42;;;;;;;4.73;4.60;;;20.90;65.40;;;;;;5051700;28;20483;-51
2022/11/21 02:33:10;;;;;;;4.83;4.63;;;20.90;65.50;;;;;;5051259;28;20949;-59
2022/11/21 02:35:38;;;;;;;4.30;4.10;;;20.90;65.50;;;;;;5051442;28;20467;-57
2022/11/21 02:38:11;;;;;;;5.23;5.03;;;20.90;65.50;;;;;;5051463;28;20479;-54
2022/11/21 02:40:42;;;;;;;5.33;5.10;;;20.90;65.50;;;;;;5051534;28;20528;-53
2022/11/21 02:43:14;;;;;;;4.90;4.73;;;20.90;65.50;;;;;;5051317;28;20785;-55
2022/11/21 02:45:43;;;;;;;5.77;5.47;;;20.90;65.60;;;;;;5051089;28;20491;-57
2022/11/21 02:48:10;;;;;;;5.03;4.83;;;20.90;65.60;;;;;;5051586;28;20547;-58
2022/11/21 02:50:38;;;;;;;5.33;5.13;;;20.90;65.70;;;;;;5051374;28;20522;-54
2022/11/21 02:53:08;;;;;;;5.33;5.03;;;20.90;65.60;;;;;;5050972;28;20475;-57
2022/11/21 02:55:35;;;;;;;5.40;5.20;;;20.90;65.70;;;;;;5051221;28;20546;-54
2022/11/21 02:58:02;;;;;;;4.87;4.63;;;20.90;65.80;;;;;;5054119;28;20451;-57
2022/11/21 03:00:31;;;;;;;5.90;5.60;;;20.90;65.90;;;;;;5055434;28;20539;-56
2022/11/21 03:02:58;;;;;;;5.10;4.90;;;20.90;65.90;;;;;;5054855;28;20940;-54
2022/11/21 03:05:25;;;;;;;5.70;5.40;;;20.90;66.00;;;;;;5055157;28;20475;-57
2022/11/21 03:07:52;;;;;;;5.30;5.10;;;20.90;65.90;;;;;;5055302;28;21045;-51
2022/11/21 03:10:19;;;;;;;5.40;5.20;;;20.90;65.90;;;;;;5055272;28;20432;-60
2022/11/21 03:12:46;;;;;;;5.90;5.60;;;20.90;65.90;;;;;;5055054;28;20452;-54
2022/11/21 03:15:15;;;;;;;4.90;4.70;;;20.90;66.00;;;;;;5054757;28;20555;-59
2022/11/21 03:17:43;;;;;;;5.30;5.10;;;20.90;66.10;;;;;;5055154;28;20871;-51
2022/11/21 03:20:11;;;;;;;6.10;5.80;;;20.90;66.10;;;;;;5054997;28;20547;-51
2022/11/21 03:22:38;;;;;;;6.10;5.73;;;20.90;66.00;;;;;;5054856;28;20531;-50
2022/11/21 03:25:05;;;;;;;5.23;5.03;;;20.90;66.00;;;;;;5054962;28;20463;-51
2022/11/21 03:27:32;;;;;;;6.30;6.00;;;20.90;66.00;;;;;;5054538;28;20562;-51
2022/11/21 03:29:59;;;;;;;5.43;5.13;;;20.90;65.90;;;;;;5054870;28;20444;-56
2022/11/21 03:32:26;;;;;;;5.40;5.10;;;20.90;65.90;;;;;;5054691;28;20523;-52
2022/11/21 03:34:54;;;;;;;5.50;5.27;;;20.90;65.80;;;;;;5054660;28;20498;-52
2022/11/21 03:37:21;;;;;;;5.73;5.43;;;20.90;65.90;;;;;;5054826;28;20440;-56
2022/11/21 03:39:47;;;;;;;5.10;4.90;;;20.90;65.80;;;;;;5054538;28;20470;-60
2022/11/21 03:42:14;;;;;;;5.23;5.03;;;20.90;65.80;;;;;;5054382;28;20943;-54
2022/11/21 03:44:41;;;;;;;5.40;5.10;;;20.90;65.90;;;;;;5054542;28;20502;-53
2022/11/21 03:47:08;;;;;;;5.80;5.57;;;20.90;65.90;;;;;;5054297;28;20522;-56
2022/11/21 03:49:35;;;;;;;5.37;5.13;;;20.90;66.00;;;;;;5054616;28;20968;-56
2022/11/21 03:52:04;;;;;;;5.97;5.67;;;20.90;66.00;;;;;;5054427;28;20444;-53
2022/11/21 03:54:30;;;;;;;6.00;5.70;;;20.90;66.00;;;;;;5054370;28;20468;-56
2022/11/21 03:56:57;;;;;;;5.40;5.20;;;20.90;66.10;;;;;;5054156;28;20476;-52
2022/11/21 03:59:25;;;;;;;6.40;6.10;;;20.90;66.10;;;;;;5054381;28;20535;-56
2022/11/21 04:01:51;;;;;;;7.97;7.10;;;20.90;66.20;;;;;;5054093;28;20444;-52
2022/11/21 04:04:18;;;;;;;5.80;5.53;;;20.90;66.00;;;;;;5053885;28;20562;-54
2022/11/21 04:06:45;;;;;;;5.60;5.40;;;20.90;66.00;;;;;;5054230;28;21041;-54
2022/11/21 04:09:13;;;;;;;6.03;5.73;;;21.00;66.10;;;;;;5053476;28;20539;-54
2022/11/21 04:11:40;;;;;;;6.00;5.70;;;21.00;66.10;;;;;;5054033;28;20446;-58
2022/11/21 04:14:07;;;;;;;6.10;5.80;;;21.00;65.90;;;;;;5053777;28;20834;-53
2022/11/21 04:16:34;;;;;;;5.90;5.60;;;21.00;65.90;;;;;;5054114;28;20531;-54
2022/11/21 04:19:00;;;;;;;6.30;6.10;;;21.00;65.90;;;;;;5054018;28;20938;-55
2022/11/21 04:21:27;;;;;;;5.23;5.03;;;21.00;65.90;;;;;;5053795;28;20487;-54
2022/11/21 04:23:54;;;;;;;6.40;6.10;;;21.10;65.80;;;;;;5053734;28;20523;-52
2022/11/21 04:26:22;;;;;;;7.13;6.63;;;21.10;65.70;;;;;;5053456;28;20986;-53
2022/11/21 04:28:49;;;;;;;5.33;5.13;;;21.10;65.50;;;;;;5053919;28;20440;-54
2022/11/21 04:31:16;;;;;;;6.03;5.63;;;21.10;65.50;;;;;;5053582;28;20965;-54
2022/11/21 04:33:43;;;;;;;6.20;5.90;;;21.10;65.40;;;;;;5053735;28;20440;-59
2022/11/21 04:36:10;;;;;;;6.20;5.90;;;21.10;65.30;;;;;;5053763;28;20479;-54
2022/11/21 04:38:37;;;;;;;6.83;6.40;;;21.10;65.30;;;;;;5053352;28;20520;-54
2022/11/21 04:41:04;;;;;;;5.33;5.13;;;21.10;65.30;;;;;;5053499;28;20837;-52
2022/11/21 04:43:32;;;;;;;6.33;6.03;;;21.20;65.50;;;;;;5053477;28;20444;-56
2022/11/21 04:45:59;;;;;;;6.73;6.33;;;21.20;65.50;;;;;;5053365;28;20804;-56
2022/11/21 04:48:26;;;;;;;5.80;5.60;;;21.20;65.50;;;;;;5053605;28;20455;-55
2022/11/21 04:50:52;;;;;;;6.10;5.70;;;21.20;65.40;;;;;;5053225;28;20474;-58
2022/11/21 04:53:19;;;;;;;6.83;6.50;;;21.20;65.40;;;;;;5052978;28;20455;-59
2022/11/21 04:55:46;;;;;;;6.10;5.80;;;21.20;65.30;;;;;;5053397;28;20575;-56
2022/11/21 04:58:13;;;;;;;6.53;6.10;;;21.20;65.20;;;;;;5053265;28;20446;-55
2022/11/21 05:00:41;;;;;;;5.97;5.67;;;21.20;65.00;;;;;;5053244;28;20523;-56
2022/11/21 05:03:08;;;;;;;5.63;5.43;;;21.20;64.70;;;;;;5052708;28;20453;-57
2022/11/21 05:05:35;;;;;;;6.33;6.03;;;21.20;64.70;;;;;;5052989;28;20515;-53
2022/11/21 05:08:02;;;;;;;6.73;6.33;;;21.30;64.90;;;;;;5053038;28;20563;-60
2022/11/21 05:10:29;;;;;;;5.87;5.57;;;21.30;64.90;;;;;;5052931;28;20539;-53
2022/11/21 05:15:50;;;;;;;6.40;6.10;;;21.30;65.10;;;;;;5052463;28;20464;-55
2022/11/21 05:18:17;;;;;;;6.10;5.80;;;21.30;65.00;;;;;;5052124;28;20541;-53
2022/11/21 05:20:44;;;;;;;6.30;6.00;;;21.30;64.80;;;;;;5051830;28;20643;-61
2022/11/21 05:23:11;;;;;;;6.77;6.47;;;21.40;65.10;;;;;;5052658;28;20480;-54
2022/11/21 05:25:38;;;;;;;6.60;6.30;;;21.30;65.20;;;;;;5052562;28;20547;-52
2022/11/21 05:28:05;;;;;;;5.43;5.13;;;21.30;65.10;;;;;;5052178;28;20850;-58
2022/11/21 05:30:32;;;;;;;6.80;6.30;;;21.30;65.10;;;;;;5052660;28;20448;-57
2022/11/21 05:33:00;;;;;;;6.90;6.50;;;21.30;65.50;;;;;;5052437;28;20539;-58
2022/11/21 05:35:27;;;;;;;6.33;6.03;;;21.30;65.70;;;;;;5052538;28;20903;-58
2022/11/21 05:37:56;;;;;;;6.10;5.70;;;21.30;65.90;;;;;;5052426;28;20535;-57
2022/11/21 05:40:24;;;;;;;7.00;6.60;;;21.30;65.90;;;;;;5052157;28;20450;-54
2022/11/21 05:45:35;;;;;;;5.83;5.60;;;21.30;66.20;;;;;;5052362;28;20442;-55
2022/11/21 05:48:06;;;;;;;6.80;6.50;;;21.30;66.40;;;;;;5052032;28;20559;-55
2022/11/21 05:50:34;;;;;;;7.43;6.93;;;21.30;66.30;;;;;;5052092;28;20440;-56
2022/11/21 05:53:02;;;;;;;6.60;6.30;;;21.30;65.90;;;;;;5052021;28;20965;-54
2022/11/21 05:55:29;;;;;;;7.63;7.13;;;21.40;66.40;;;;;;5051791;28;20464;-58
2022/11/21 05:57:59;;;;;;;10.20;7.77;;;21.50;66.60;;;;;;5051456;28;20536;-55
2022/11/21 06:00:25;;;;;;;10.10;7.67;;;21.50;66.80;;;;;;5052119;28;20890;-57
2022/11/21 06:05:38;;;;;;;15.13;10.30;;;21.60;66.40;;;;;;5051925;28;20545;-51
2022/11/21 06:08:05;;;;;;;13.90;9.60;;;21.60;70.30;;;;;;5051984;28;20477;-55
2022/11/21 06:10:33;;;;;;;13.83;10.90;;;21.60;72.80;;;;;;5051486;28;20527;-54
2022/11/21 06:13:00;;;;;;;19.43;10.07;;;21.60;71.90;;;;;;5047087;28;20495;-57
2022/11/21 06:15:27;;;;;;;19.60;9.50;;;21.60;75.00;;;;;;5051511;28;20468;-53
2022/11/21 06:17:54;;;;;;;13.77;10.20;;;21.70;74.70;;;;;;5051912;28;20475;-56
2022/11/21 06:20:21;;;;;;;14.50;9.70;;;21.70;74.40;;;;;;5051916;28;20534;-54
2022/11/21 06:22:49;;;;;;;12.50;8.50;;;21.80;73.60;;;;;;5051470;28;20475;-59
2022/11/21 06:25:16;;;;;;;11.93;8.87;;;21.90;72.70;;;;;;5051556;28;20475;-57
2022/11/21 06:27:43;;;;;;;14.20;8.57;;;21.90;71.70;;;;;;5051554;28;20479;-53
2022/11/21 06:30:10;;;;;;;10.60;8.50;;;22.00;71.00;;;;;;5051646;28;20538;-55
2022/11/21 06:32:38;;;;;;;10.57;7.70;;;22.00;70.30;;;;;;5051030;28;20531;-52
2022/11/21 06:35:05;;;;;;;11.63;9.33;;;22.00;69.60;;;;;;5051516;28;20994;-59
2022/11/21 06:37:32;;;;;;;8.93;8.23;;;22.00;69.10;;;;;;5051510;28;20459;-56
2022/11/21 06:40:00;;;;;;;11.07;8.23;;;22.10;68.70;;;;;;5051504;28;20449;-57
2022/11/21 06:42:27;;;;;;;9.80;8.20;;;22.10;68.20;;;;;;5051350;28;20444;-57
2022/11/21 06:44:54;;;;;;;10.27;8.40;;;22.10;67.80;;;;;;5051485;28;20838;-54
2022/11/21 06:47:20;;;;;;;9.30;7.97;;;22.10;67.30;;;;;;5051296;28;20570;-57
2022/11/21 06:49:47;;;;;;;10.50;7.60;;;22.10;66.90;;;;;;5051574;28;20542;-56
2022/11/21 06:52:14;;;;;;;10.67;8.60;;;22.20;66.70;;;;;;5051208;28;20536;-54
2022/11/21 06:54:42;;;;;;;7.70;6.90;;;22.20;66.40;;;;;;5051417;28;20557;-52
2022/11/21 06:57:10;;;;;;;8.37;7.20;;;22.20;66.10;;;;;;5051501;28;20486;-60
2022/11/21 06:59:37;;;;;;;14.47;8.53;;;22.20;65.70;;;;;;5051324;28;20450;-58
2022/11/21 07:02:04;;;;;;;8.70;7.80;;;22.20;65.60;;;;;;5051134;28;20475;-55
2022/11/21 07:04:31;;;;;;;9.43;8.50;;;22.20;65.20;;;;;;5070932;22;20479;-59
2022/11/21 07:06:58;;;;;;;8.67;7.87;;;22.30;65.10;;;;;;5011359;28;20478;-60
2022/11/21 07:09:24;;;;;;;9.27;6.87;;;22.30;64.90;;;;;;5011609;28;20532;-59
2022/11/21 07:11:51;;;;;;;11.27;7.60;;;22.30;64.70;;;;;;5011392;28;20446;-61
2022/11/21 07:14:18;;;;;;;7.47;6.47;;;22.30;64.40;;;;;;5011428;28;20448;-61
2022/11/21 07:16:45;;;;;;;7.00;6.30;;;22.30;64.20;;;;;;5011538;28;20541;-56
2022/11/21 07:19:12;;;;;;;7.50;6.90;;;22.30;63.90;;;;;;5011592;28;20446;-59
2022/11/21 07:21:39;;;;;;;7.50;6.90;;;22.30;63.80;;;;;;5011323;28;20877;-56
2022/11/21 07:24:06;;;;;;;8.07;7.33;;;22.30;63.60;;;;;;5011440;28;20512;-62
2022/11/21 07:26:33;;;;;;;7.63;7.03;;;22.30;63.50;;;;;;5011372;28;20472;-59
2022/11/21 07:29:00;;;;;;;9.03;8.23;;;22.40;63.30;;;;;;5011429;28;20856;-59
2022/11/21 07:31:28;;;;;;;7.40;6.90;;;22.40;63.10;;;;;;5011217;28;20438;-60
2022/11/21 07:33:55;;;;;;;8.13;7.40;;;22.40;63.70;;;;;;5011390;28;20445;-60
2022/11/21 07:36:22;;;;;;;8.10;6.93;;;22.40;62.80;;;;;;5011231;28;20454;-59
2022/11/21 07:38:48;;;;;;;7.87;7.07;;;22.50;62.80;;;;;;5011279;28;20452;-60
2022/11/21 07:41:15;;;;;;;9.47;8.17;;;22.50;62.60;;;;;;5011154;28;20448;-60
2022/11/21 07:43:42;;;;;;;7.70;7.30;;;22.50;62.40;;;;;;5011715;28;20764;-57
2022/11/21 07:46:09;;;;;;;6.40;5.90;;;22.50;62.30;;;;;;5014925;28;20493;-61
2022/11/21 07:48:37;;;;;;;6.50;6.00;;;22.50;62.10;;;;;;5014729;28;20568;-56
2022/11/21 07:51:05;;;;;;;6.90;6.27;;;22.60;62.00;;;;;;5014743;28;20490;-61
2022/11/21 07:53:32;;;;;;;7.73;7.23;;;22.50;61.80;;;;;;5014629;28;20446;-57
2022/11/21 07:55:59;;;;;;;9.20;5.83;;;22.50;62.40;;;;;;5014808;28;21041;-61
2022/11/21 07:58:26;;;;;;;6.67;6.27;;;22.50;61.60;;;;;;5014759;28;20445;-59
2022/11/21 08:00:53;;;;;;;8.03;7.53;;;22.60;61.50;;;;;;5014609;28;20477;-56
2022/11/21 08:03:21;;;;;;;6.70;6.17;;;22.50;61.30;;;;;;5014528;28;20456;-57
2022/11/21 08:05:49;;;;;;;6.37;5.90;;;22.50;61.10;;;;;;5014465;28;20849;-55
2022/11/21 08:08:16;;;;;;;6.17;5.80;;;22.50;61.00;;;;;;5014287;28;20924;-57
2022/11/21 08:10:44;;;;;;;5.90;5.60;;;22.50;60.90;;;;;;5014553;28;20452;-60
2022/11/21 08:13:12;;;;;;;6.63;6.13;;;22.50;60.90;;;;;;5014302;28;20445;-60
2022/11/21 08:15:39;;;;;;;7.40;6.90;;;22.50;60.80;;;;;;5014243;28;20457;-59
2022/11/21 08:18:10;;;;;;;5.97;5.67;;;22.50;60.70;;;;;;5014513;28;20437;-60
2022/11/21 08:20:37;;;;;;;7.07;6.53;;;22.50;60.60;;;;;;5014328;28;20477;-57
2022/11/21 08:23:06;;;;;;;7.03;6.53;;;22.50;60.50;;;;;;5013931;28;20450;-57
2022/11/21 08:25:33;;;;;;;7.00;6.60;;;22.50;60.50;;;;;;5014056;28;20466;-58
2022/11/21 08:28:01;;;;;;;6.90;6.40;;;22.50;60.50;;;;;;5014145;28;20489;-62
2022/11/21 08:30:28;;;;;;;7.43;6.60;;;22.50;60.30;;;;;;5014186;28;20512;-57
2022/11/21 08:32:55;;;;;;;6.13;5.63;;;22.50;60.30;;;;;;5013779;28;20446;-59
2022/11/21 08:35:22;;;;;;;6.13;5.83;;;22.50;60.20;;;;;;5014063;28;20545;-55
2022/11/21 08:37:48;;;;;;;5.80;5.40;;;22.50;60.10;;;;;;5013944;28;20512;-57
2022/11/21 08:40:17;;;;;;;6.20;5.90;;;22.50;60.00;;;;;;5013996;28;20442;-54
2022/11/21 08:42:44;;;;;;;5.90;5.60;;;22.50;60.00;;;;;;5013728;28;20770;-57
2022/11/21 08:45:11;;;;;;;6.30;6.10;;;22.50;60.00;;;;;;5013770;28;20461;-59
2022/11/21 08:47:37;;;;;;;6.17;5.87;;;22.50;59.90;;;;;;5013721;28;20473;-54
2022/11/21 08:50:05;;;;;;;6.90;6.47;;;22.60;59.90;;;;;;5013828;28;20448;-61
2022/11/21 08:52:32;;;;;;;6.23;5.93;;;22.60;59.80;;;;;;5013629;28;20438;-59
2022/11/21 08:54:58;;;;;;;6.10;5.70;;;22.60;59.80;;;;;;5013307;28;20852;-62
2022/11/21 08:57:26;;;;;;;6.90;6.50;;;22.60;59.80;;;;;;5013699;28;20448;-55
2022/11/21 08:59:53;;;;;;;6.03;5.60;;;22.60;59.70;;;;;;5013535;28;20446;-58
2022/11/21 09:02:20;;;;;;;5.93;5.53;;;22.60;59.60;;;;;;5013455;28;20536;-58
2022/11/21 09:04:47;;;;;;;5.63;5.33;;;22.60;59.50;;;;;;5013263;28;20484;-62
2022/11/21 09:07:14;;;;;;;5.50;5.20;;;22.60;59.50;;;;;;5013305;28;20448;-57
2022/11/21 09:09:40;;;;;;;5.83;5.53;;;22.60;59.40;;;;;;5013461;28;20725;-60
2022/11/21 09:12:07;;;;;;;6.47;5.80;;;22.60;59.40;;;;;;5013078;28;20448;-58
2022/11/21 09:20:04;;;;;;;5.20;5.00;;;22.70;59.40;;;;;;5013256;28;20424;-62
2022/11/21 09:22:31;;;;;;;5.77;5.57;;;22.70;59.30;;;;;;5013038;28;20446;-59
2022/11/21 09:24:58;;;;;;;5.67;5.37;;;22.70;59.20;;;;;;5013310;28;20504;-60
2022/11/21 09:27:25;;;;;;;5.80;5.30;;;22.70;59.20;;;;;;5013728;28;20541;-56
2022/11/21 09:29:53;;;;;;;6.77;6.23;;;22.70;59.20;;;;;;5013473;28;20460;-61
2022/11/21 09:32:20;;;;;;;5.37;5.17;;;22.70;59.10;;;;;;5012819;28;20486;-61
2022/11/21 09:34:47;;;;;;;5.30;5.00;;;22.70;59.10;;;;;;5012876;28;20901;-57
2022/11/21 09:37:14;;;;;;;5.40;5.20;;;22.70;59.00;;;;;;5012837;28;20442;-62
2022/11/21 09:39:41;;;;;;;6.53;6.23;;;22.70;59.00;;;;;;5012895;28;20448;-59
2022/11/21 09:42:30;;;;;;;5.63;5.33;;;22.70;58.90;;;;;;5012638;28;20477;-61
2022/11/21 09:45:07;;;;;;;5.47;5.23;;;22.70;58.90;;;;;;5012706;28;21035;-59
2022/11/21 09:47:37;;;;;;;5.47;5.27;;;22.70;58.90;;;;;;5012631;28;20452;-60
2022/11/21 09:50:06;;;;;;;5.53;5.33;;;22.70;58.80;;;;;;5012637;28;20482;-62
2022/11/21 09:52:39;;;;;;;5.30;5.10;;;22.70;58.80;;;;;;5012771;28;20478;-61
2022/11/21 09:55:16;;;;;;;5.63;5.33;;;22.70;58.70;;;;;;5012543;28;20580;-61
2022/11/21 09:57:44;;;;;;;5.70;5.50;;;22.70;58.70;;;;;;5012601;28;20473;-59
2022/11/21 10:00:19;;;;;;;5.67;5.37;;;22.70;58.70;;;;;;5012626;28;20937;-60
2022/11/21 10:02:46;;;;;;;5.47;5.27;;;22.70;58.70;;;;;;5012386;28;20945;-60
2022/11/21 10:05:14;;;;;;;6.13;5.83;;;22.70;58.70;;;;;;5012241;28;20564;-61
2022/11/21 10:07:42;;;;;;;5.27;5.03;;;22.70;58.70;;;;;;5011736;28;20442;-61
2022/11/21 10:10:25;;;;;;;5.37;5.17;;;22.70;58.60;;;;;;5012373;28;20533;-61
2022/11/21 10:13:06;;;;;;;5.23;4.90;;;22.70;58.60;;;;;;5012163;28;20540;-60
2022/11/21 10:15:44;;;;;;;5.60;5.30;;;22.70;58.50;;;;;;5012302;28;20584;-60
2022/11/21 10:18:43;;;;;;;5.13;4.90;;;22.70;58.50;;;;;;5012324;28;20485;-58
2022/11/21 10:21:26;;;;;;;4.90;4.70;;;22.70;58.60;;;;;;5012036;28;20865;-56
2022/11/21 10:24:13;;;;;;;4.60;4.50;;;22.70;58.50;;;;;;5012070;28;20446;-59
2022/11/21 10:26:50;;;;;;;5.20;5.00;;;22.70;58.50;;;;;;5012133;28;20529;-59
2022/11/21 10:29:23;;;;;;;5.10;4.90;;;22.70;58.50;;;;;;5012045;28;20679;-60
2022/11/21 10:31:56;;;;;;;5.17;4.77;;;22.70;58.50;;;;;;5011907;28;20457;-61
2022/11/21 10:34:26;;;;;;;4.90;4.80;;;22.70;59.00;;;;;;5012034;28;20452;-61
2022/11/21 10:36:58;;;;;;;4.83;4.73;;;22.70;58.40;;;;;;5012004;28;20534;-61
2022/11/21 10:39:34;;;;;;;5.83;5.53;;;22.70;58.40;;;;;;5012091;28;20929;-61
2022/11/21 10:42:09;;;;;;;5.30;5.10;;;22.70;58.40;;;;;;5011709;28;20446;-57
2022/11/21 10:47:27;;;;;;;6.00;5.80;;;22.70;58.30;;;;;;5011971;28;20917;-59
2022/11/21 10:50:00;;;;;;;5.30;5.10;;;22.70;58.30;;;;;;5011771;28;20477;-63
2022/11/21 10:52:31;;;;;;;5.07;4.87;;;22.70;58.20;;;;;;5011834;28;20453;-59
2022/11/21 10:55:09;;;;;;;5.03;4.83;;;22.70;58.30;;;;;;5011697;28;20497;-61
2022/11/21 10:57:42;;;;;;;5.70;5.40;;;22.70;58.20;;;;;;5011863;28;20536;-62
2022/11/21 11:00:22;;;;;;;6.13;5.80;;;22.70;58.10;;;;;;5011831;28;20533;-59
2022/11/21 11:03:04;;;;;;;5.00;4.80;;;22.80;58.20;;;;;;5011507;28;20468;-62
2022/11/21 11:05:32;;;;;;;5.00;4.80;;;22.80;58.20;;;;;;5011540;28;20478;-61
2022/11/21 11:08:03;;;;;;;5.60;5.40;;;22.80;58.10;;;;;;5011543;28;21022;-59
2022/11/21 11:10:30;;;;;;;5.20;5.00;;;22.80;58.10;;;;;;5011734;28;20526;-59
2022/11/21 11:15:55;;;;;;;4.63;4.53;;;22.80;58.00;;;;;;5011650;28;20449;-60
2022/11/21 11:18:24;;;;;;;5.27;5.07;;;22.80;58.00;;;;;;5012955;28;20956;-60
2022/11/21 11:20:51;;;;;;;5.27;4.97;;;22.80;57.90;;;;;;5015463;28;20536;-62
2022/11/21 11:23:25;;;;;;;5.03;4.73;;;22.80;57.90;;;;;;5015298;28;20456;-61
2022/11/21 11:25:54;;;;;;;4.90;4.80;;;22.80;57.90;;;;;;5015251;28;20466;-62
2022/11/21 11:28:22;;;;;;;5.70;5.50;;;22.80;57.90;;;;;;5015241;28;20852;-60
2022/11/21 11:30:50;;;;;;;5.00;4.80;;;22.90;57.80;;;;;;5015301;28;20805;-62
2022/11/21 11:33:36;;;;;;;5.13;5.03;;;22.90;57.80;;;;;;5014989;28;20544;-58
2022/11/21 11:36:14;;;;;;;5.20;5.00;;;22.90;57.70;;;;;;5015147;28;20493;-60
2022/11/21 11:38:45;;;;;;;5.43;5.23;;;22.90;57.80;;;;;;5015261;28;20453;-62
2022/11/21 11:41:19;;;;;;;6.03;5.63;;;22.90;57.70;;;;;;5015060;28;20489;-61
2022/11/21 11:50:10;;;;;;;5.10;4.90;;;22.90;57.70;;;;;;5014999;28;20632;-61
2022/11/21 11:52:31;;;;;;;5.33;5.13;;;22.90;57.60;;;;;;5014677;28;20449;-59
2022/11/21 11:55:03;;;;;;;4.93;4.57;;;22.90;57.60;;;;;;5014815;28;20912;-62
2022/11/21 11:57:31;;;;;;;4.70;4.60;;;22.90;57.60;;;;;;5015321;28;20877;-63
2022/11/21 12:00:07;;;;;;;5.43;5.23;;;22.90;57.70;;;;;;5015975;28;20532;-62
2022/11/21 12:02:48;;;;;;;4.67;4.47;;;22.90;58.20;;;;;;5014995;28;20467;-61
2022/11/21 12:05:23;;;;;;;4.60;4.50;;;22.90;57.60;;;;;;5014464;28;20509;-59
2022/11/21 12:07:59;;;;;;;5.20;5.00;;;22.90;57.60;;;;;;5014854;28;20504;-61
2022/11/21 12:10:34;;;;;;;4.73;4.63;;;22.90;57.50;;;;;;5014578;28;20484;-61
2022/11/21 12:13:05;;;;;;;5.53;5.27;;;22.90;57.50;;;;;;5014387;28;20447;-62
2022/11/21 12:15:51;;;;;;;5.00;4.80;;;22.90;57.40;;;;;;5014413;28;20488;-60
2022/11/21 12:18:26;;;;;;;5.20;5.00;;;22.90;57.40;;;;;;5014509;28;20983;-59
2022/11/21 12:21:02;;;;;;;5.80;5.50;;;22.90;57.40;;;;;;5014375;28;20460;-66
2022/11/21 12:23:33;;;;;;;4.93;4.73;;;22.90;57.40;;;;;;5014431;28;20496;-62
2022/11/21 12:26:13;;;;;;;5.40;5.20;;;22.90;57.40;;;;;;5014814;28;20536;-62
2022/11/21 12:28:51;;;;;;;4.93;4.83;;;22.90;57.30;;;;;;5014766;28;20568;-62
2022/11/21 12:31:25;;;;;;;5.37;5.17;;;22.90;57.30;;;;;;5014001;28;20529;-62
2022/11/21 12:34:02;;;;;;;5.20;5.00;;;22.90;57.30;;;;;;5014668;28;20529;-63
2022/11/21 12:36:40;;;;;;;5.40;5.27;;;22.90;57.30;;;;;;5014722;28;20559;-62
2022/11/21 12:39:39;;;;;;;4.90;4.70;;;23.00;57.90;;;;;;5014852;28;20445;-60
2022/11/21 12:45:18;;;;;;;4.70;4.60;;;23.00;57.30;;;;;;5013921;28;20976;-57
2022/11/21 12:56:40;;;;;;;5.20;5.07;;;23.00;57.20;;;;;;5013677;28;20476;-61
2022/11/21 12:59:10;;;;;;;5.30;5.10;;;23.00;57.20;;;;;;5013659;28;20524;-59
2022/11/21 13:01:48;;;;;;;4.90;4.70;;;23.00;57.20;;;;;;5013408;28;20868;-59
2022/11/21 13:04:18;;;;;;;4.50;4.40;;;23.00;57.20;;;;;;5013423;28;20446;-62
2022/11/21 13:06:47;;;;;;;4.87;4.63;;;23.00;57.10;;;;;;5057272;22;21089;-64
2022/11/21 13:09:19;;;;;;;5.47;5.27;;;23.00;57.10;;;;;;5033827;28;20567;-65
2022/11/21 13:11:59;;;;;;;4.40;4.30;;;23.00;57.10;;;;;;5035039;28;20440;-64
2022/11/21 13:14:41;;;;;;;5.10;4.90;;;23.00;57.10;;;;;;5035197;28;20528;-61
2022/11/21 13:17:20;;;;;;;5.07;4.87;;;23.00;57.10;;;;;;5014897;28;20478;-64
2022/11/21 13:19:54;;;;;;;5.23;4.93;;;23.00;57.10;;;;;;5014343;28;20449;-62
2022/11/21 13:22:53;;;;;;;4.97;4.83;;;23.00;57.10;;;;;;5013655;28;20449;-64
2022/11/21 13:25:47;;;;;;;5.13;4.93;;;23.00;57.60;;;;;;5014884;28;20904;-64
2022/11/21 13:28:38;;;;;;;4.60;4.50;;;23.00;57.00;;;;;;5013931;28;20477;-64
2022/11/21 13:31:27;;;;;;;4.80;4.70;;;23.00;57.00;;;;;;4998525;28;20532;-63
2022/11/21 13:33:54;;;;;;;5.03;4.73;;;23.00;57.00;;;;;;5013146;28;20933;-63
2022/11/21 13:36:44;;;;;;;4.90;4.70;;;23.00;57.00;;;;;;5013000;28;20458;-63